Time;durP1;ratioP1;P1;durP2;ratioP2;P2;SDS_P1;SDS_P2;PMS_P1;PMS_P2;Temp;Humidity;BMP_temperature;BMP_pressure;BME280_temperature;BME280_humidity;BME280_pressure;Samples;Min_cycle;Max_cycle;Signal;HPM_P1;HPM_P2
2023/08/14 00:00:27;;;;;;;1.90;1.80;;;;;;;15.96;92.54;101526.72;5056648;28;20048;-92
2023/08/14 00:02:52;;;;;;;1.93;1.83;;;;;;;15.95;92.58;101522.38;5055589;28;20476;-92
2023/08/14 00:05:17;;;;;;;1.80;1.70;;;;;;;15.87;92.37;101513.00;5056386;28;20033;-91
2023/08/14 00:07:43;;;;;;;2.07;1.87;;;;;;;15.82;92.59;101512.22;5055068;28;20064;-92
2023/08/14 00:10:42;;;;;;;1.70;1.60;;;;;;;15.82;92.67;101514.84;5055664;28;20053;-92
2023/08/14 00:13:07;;;;;;;1.73;1.63;;;;;;;15.72;92.84;101508.13;5055985;28;20035;-91
2023/08/14 00:15:33;;;;;;;1.90;1.80;;;;;;;15.75;92.72;101518.53;5056125;28;20024;-92
2023/08/14 00:17:58;;;;;;;2.50;1.90;;;;;;;15.68;92.57;101504.72;5055892;28;20107;-92
2023/08/14 00:20:24;;;;;;;1.80;1.70;;;;;;;15.71;92.97;101525.56;5056227;28;20074;-92
2023/08/14 00:23:06;;;;;;;2.00;1.90;;;;;;;15.70;93.11;101525.63;5055707;28;20074;-92
2023/08/14 00:25:34;;;;;;;1.88;1.77;;;;;;;15.60;93.17;101493.59;5056032;28;20021;-92
2023/08/14 00:28:00;;;;;;;1.70;1.60;;;;;;;15.57;93.18;101497.16;5055954;28;20025;-92
2023/08/14 00:30:34;;;;;;;1.80;1.70;;;;;;;15.65;93.25;101517.03;5055827;28;20369;-92
2023/08/14 00:33:00;;;;;;;1.70;1.60;;;;;;;15.61;93.49;101511.00;5055833;28;20469;-93
2023/08/14 00:35:25;;;;;;;1.80;1.70;;;;;;;15.50;93.39;101484.25;5046982;28;20064;-91
2023/08/14 00:37:50;;;;;;;2.03;1.83;;;;;;;15.54;93.21;101497.22;5035627;28;20045;-92
2023/08/14 00:40:19;;;;;;;1.93;1.63;;;;;;;15.57;93.36;101512.00;5035111;28;20044;-92
2023/08/14 00:42:45;;;;;;;2.13;1.92;;;;;;;15.56;93.47;101518.13;5035362;28;20025;-92
2023/08/14 00:45:11;;;;;;;1.80;1.70;;;;;;;15.53;93.50;101512.97;5035392;28;20036;-92
2023/08/14 00:48:05;;;;;;;1.80;1.70;;;;;;;15.38;93.51;101494.13;5035305;28;20021;-92
2023/08/14 00:50:40;;;;;;;2.40;2.15;;;;;;;15.40;93.53;101499.34;5034847;28;20025;-92
2023/08/14 00:53:06;;;;;;;1.70;1.60;;;;;;;15.41;93.56;101504.53;5035328;28;20039;-93
2023/08/14 00:55:34;;;;;;;1.90;1.80;;;;;;;15.35;93.61;101490.75;5035290;28;20025;-92
2023/08/14 00:58:00;;;;;;;2.38;1.90;;;;;;;15.29;93.54;101481.28;5035536;28;20021;-94
2023/08/14 01:00:28;;;;;;;2.70;1.80;;;;;;;15.35;93.59;101491.63;5035218;28;20094;-93
2023/08/14 01:02:54;;;;;;;1.90;1.80;;;;;;;15.28;93.82;101482.19;5036818;28;20018;-93
2023/08/14 01:05:19;;;;;;;1.80;1.70;;;;;;;15.33;93.78;101490.78;5037923;28;20057;-92
2023/08/14 01:07:58;;;;;;;2.10;1.70;;;;;;;15.25;94.23;101480.53;5042799;28;20076;-92
2023/08/14 01:10:52;;;;;;;1.90;1.80;;;;;;;15.32;93.98;101496.03;5034909;28;20477;-92
2023/08/14 01:14:14;;;;;;;2.17;1.90;;;;;;;15.35;94.16;101490.75;5035290;28;20029;-91
2023/08/14 01:16:47;;;;;;;2.85;1.92;;;;;;;15.34;94.09;101489.91;4954669;29;20146;-92
2023/08/14 01:19:30;;;;;;;2.70;2.20;;;;;;;15.32;94.11;101486.47;4954331;28;20101;-93
2023/08/14 01:22:20;;;;;;;1.88;1.77;;;;;;;15.32;94.10;101490.81;5005437;28;20045;-91
2023/08/14 01:24:53;;;;;;;2.30;2.10;;;;;;;15.26;94.20;101470.91;5034747;28;20037;-92
2023/08/14 01:27:19;;;;;;;2.20;2.00;;;;;;;15.26;94.08;101481.34;5242054;22;20402;-92
2023/08/14 01:29:54;;;;;;;2.08;1.95;;;;;;;15.25;94.27;101477.91;5074539;28;20025;-92
2023/08/14 01:32:20;;;;;;;2.17;1.98;;;;;;;15.23;94.27;101473.63;5074570;28;20029;-91
2023/08/14 01:34:45;;;;;;;2.57;2.20;;;;;;;15.14;94.42;101465.06;5074878;28;20031;-92
2023/08/14 01:37:25;;;;;;;2.40;2.20;;;;;;;15.22;94.51;101466.66;5074539;28;20365;-92
2023/08/14 01:39:59;;;;;;;2.78;2.25;;;;;;;15.22;94.42;101477.97;5074153;28;20074;-93
2023/08/14 01:42:38;;;;;;;2.50;2.30;;;;;;;15.24;94.61;101480.56;5074471;28;20107;-92
2023/08/14 01:45:16;;;;;;;2.78;2.38;;;;;;;15.22;94.54;101469.28;5074575;28;20461;-93
2023/08/14 01:47:43;;;;;;;2.42;2.20;;;;;;;15.18;94.59;101463.28;5074302;28;20039;-92
2023/08/14 01:50:09;;;;;;;2.33;2.13;;;;;;;15.15;94.62;101452.88;5074139;28;20073;-92
2023/08/14 01:52:35;;;;;;;3.15;2.40;;;;;;;15.15;94.65;101442.44;5073848;28;20039;-92
2023/08/14 01:55:00;;;;;;;2.63;2.30;;;;;;;15.14;94.57;101451.16;5074159;28;20029;-93
2023/08/14 01:57:27;;;;;;;2.30;2.07;;;;;;;15.10;94.95;101450.38;5073894;28;20135;-94
2023/08/14 01:59:52;;;;;;;2.53;2.33;;;;;;;15.08;94.90;101449.56;5074329;28;20020;-92
2023/08/14 02:02:17;;;;;;;2.17;1.97;;;;;;;15.07;94.98;101454.84;5074280;28;20123;-93
2023/08/14 02:04:43;;;;;;;2.20;2.00;;;;;;;15.04;94.97;101444.44;5075357;28;20032;-93
2023/08/14 02:07:09;;;;;;;2.23;2.00;;;;;;;14.97;95.13;101428.03;5074057;28;20035;-93
2023/08/14 02:09:35;;;;;;;2.30;2.10;;;;;;;15.00;95.15;101437.56;5074217;28;20048;-93
2023/08/14 02:12:01;;;;;;;2.40;2.20;;;;;;;14.96;95.34;101428.94;5073670;28;20047;-93
2023/08/14 02:14:26;;;;;;;2.10;2.00;;;;;;;14.96;95.30;101437.66;5073324;28;20024;-93
2023/08/14 02:16:51;;;;;;;2.33;2.00;;;;;;;14.96;95.08;101431.56;5073551;28;20477;-93
2023/08/14 02:19:19;;;;;;;1.80;1.70;;;;;;;14.96;95.60;101435.03;5074432;28;20093;-93
2023/08/14 02:21:45;;;;;;;2.60;2.10;;;;;;;14.96;95.41;101437.66;5073461;28;20468;-93
2023/08/14 02:24:10;;;;;;;2.00;1.90;;;;;;;14.91;95.60;101422.97;5073654;28;20060;-93
2023/08/14 02:26:36;;;;;;;2.33;2.13;;;;;;;14.88;95.64;101418.66;5073885;28;20029;-93
2023/08/14 02:29:02;;;;;;;2.20;2.00;;;;;;;14.94;95.55;101430.72;5074536;28;20452;-93
2023/08/14 02:31:27;;;;;;;2.30;2.10;;;;;;;14.81;95.55;101414.50;5077157;28;20048;-93
2023/08/14 02:34:00;;;;;;;2.50;2.30;;;;;;;14.86;95.70;101417.84;5078130;28;20032;-94
2023/08/14 02:36:26;;;;;;;2.33;1.92;;;;;;;14.88;95.80;101416.06;5070217;28;20040;-93
2023/08/14 02:38:52;;;;;;;2.50;2.30;;;;;;;14.86;95.71;101415.22;5078287;28;20029;-93
2023/08/14 02:41:17;;;;;;;2.30;2.10;;;;;;;14.85;95.83;101415.28;5096173;28;20281;-92
2023/08/14 02:43:42;;;;;;;2.10;1.90;;;;;;;14.86;95.96;101417.84;5080795;28;20464;-93
2023/08/14 02:46:08;;;;;;;2.40;2.20;;;;;;;14.84;96.01;101411.81;5078107;28;20044;-93
2023/08/14 02:48:33;;;;;;;2.17;1.97;;;;;;;14.76;95.69;101403.28;5077505;28;20037;-94
2023/08/14 02:50:58;;;;;;;2.57;2.00;;;;;;;14.76;95.69;101404.16;5077543;28;20060;-94
2023/08/14 02:53:24;;;;;;;2.37;2.17;;;;;;;14.78;96.02;101412.81;5077324;28;20115;-94
2023/08/14 02:55:51;;;;;;;2.30;2.10;;;;;;;14.77;95.99;101408.50;5077297;28;20031;-94
2023/08/14 02:58:16;;;;;;;2.78;2.22;;;;;;;14.75;95.99;101417.28;5077497;28;20024;-93
2023/08/14 03:00:42;;;;;;;2.93;2.20;;;;;;;14.72;96.16;101414.72;5077676;28;20020;-94
2023/08/14 03:03:07;;;;;;;2.30;2.10;;;;;;;14.64;95.68;101407.88;5077069;28;20031;-94
2023/08/14 03:05:33;;;;;;;2.70;2.10;;;;;;;14.58;96.15;101404.56;5077471;28;20031;-94
2023/08/14 03:07:58;;;;;;;1.90;1.80;;;;;;;14.55;96.26;101408.09;5077357;28;20040;-93
2023/08/14 03:10:25;;;;;;;2.10;1.90;;;;;;;14.54;96.41;101408.13;5076934;28;20028;-94
2023/08/14 03:12:51;;;;;;;2.45;2.25;;;;;;;14.56;96.54;101409.81;5077006;28;20051;-94
2023/08/14 03:15:16;;;;;;;2.53;2.13;;;;;;;14.45;96.31;101396.13;5076962;28;20025;-93
2023/08/14 03:17:42;;;;;;;2.50;2.00;;;;;;;14.46;96.53;101406.56;5077286;28;20024;-94
2023/08/14 03:23:00;;;;;;;2.00;1.90;;;;;;;14.41;96.50;101410.16;5077188;28;20035;-94
2023/08/14 03:25:41;;;;;;;2.00;1.90;;;;;;;14.38;96.62;101411.06;5077144;28;20032;-94
2023/08/14 03:28:32;;;;;;;1.90;1.80;;;;;;;14.42;96.68;101419.69;5076231;28;20048;-93
2023/08/14 03:30:57;;;;;;;2.33;1.90;;;;;;;14.30;96.77;101403.41;5077095;28;20029;-94
2023/08/14 03:33:53;;;;;;;2.53;1.80;;;;;;;14.40;96.88;101414.53;5076334;28;20078;-93
2023/08/14 03:36:37;;;;;;;2.03;1.90;;;;;;;14.36;96.89;101407.63;5077646;28;20020;-94
2023/08/14 03:39:02;;;;;;;2.15;1.98;;;;;;;14.32;96.83;101400.78;5080039;28;20047;-93
2023/08/14 03:41:28;;;;;;;1.80;1.70;;;;;;;14.33;96.86;101407.72;5085538;28;20020;-93
2023/08/14 03:43:53;;;;;;;1.97;1.83;;;;;;;14.29;97.19;101406.94;5082419;28;20457;-93
2023/08/14 03:46:18;;;;;;;2.00;1.90;;;;;;;14.34;97.01;101412.06;5076604;28;20047;-95
2023/08/14 03:51:40;;;;;;;1.80;1.70;;;;;;;14.30;97.10;101411.25;5076318;28;20054;-92
2023/08/14 03:54:14;;;;;;;1.80;1.70;;;;;;;14.18;97.28;101396.72;5075301;28;20040;-92
2023/08/14 03:56:40;;;;;;;2.13;1.95;;;;;;;14.22;96.98;101410.56;5076021;28;20108;-92
2023/08/14 03:59:20;;;;;;;2.03;1.87;;;;;;;14.20;97.25;101408.00;5075959;28;20028;-90
2023/08/14 04:01:45;;;;;;;1.98;1.88;;;;;;;14.17;97.80;101396.75;5076642;28;20035;-95
2023/08/14 04:04:16;;;;;;;1.83;1.73;;;;;;;14.21;97.64;101398.38;5075589;28;20025;-88
2023/08/14 04:06:47;;;;;;;1.90;1.80;;;;;;;14.20;97.68;101410.59;5075330;28;20056;-90
2023/08/14 04:09:14;;;;;;;2.20;2.00;;;;;;;14.11;97.81;101391.66;5077693;28;20055;-96
2023/08/14 04:12:00;;;;;;;2.00;1.90;;;;;;;14.09;97.63;101386.47;5077968;28;20031;-96
2023/08/14 04:14:41;;;;;;;;;;;;;;;14.23;97.69;101412.28;5074835;28;20025;-96
2023/08/14 04:17:06;;;;;;;2.20;2.00;;;;;;;14.17;97.76;101400.22;5074638;28;19916;-96
2023/08/14 04:19:53;;;;;;;2.00;1.83;;;;;;;14.23;97.63;101401.84;5075900;28;20150;-94
2023/08/14 04:22:18;;;;;;;2.10;1.90;;;;;;;14.21;97.60;101401.00;5075273;28;20457;-96
2023/08/14 04:25:21;;;;;;;2.17;1.97;;;;;;;14.22;97.60;101402.72;5076491;28;20044;-96
2023/08/14 04:27:46;;;;;;;2.30;2.10;;;;;;;14.11;97.67;101376.00;5077441;28;20040;-96
2023/08/14 04:30:26;;;;;;;2.27;2.07;;;;;;;14.11;97.73;101376.88;5079515;28;20533;-96
2023/08/14 04:33:12;;;;;;;2.10;1.90;;;;;;;14.12;97.47;101377.72;5065020;28;20029;-96
2023/08/14 04:35:37;;;;;;;2.95;1.80;;;;;;;14.07;97.53;101367.38;5061785;28;20082;-94
2023/08/14 04:38:20;;;;;;;1.80;1.70;;;;;;;14.19;97.75;101387.13;5055734;28;20381;-92
2023/08/14 04:40:45;;;;;;;2.20;2.00;;;;;;;14.18;97.91;101382.81;5057410;28;20020;-93
2023/08/14 04:43:17;;;;;;;2.37;2.10;;;;;;;14.23;97.83;101380.09;5057105;28;20117;-92
2023/08/14 04:45:51;;;;;;;2.00;1.83;;;;;;;14.19;97.55;101366.22;5065978;28;20044;-92
2023/08/14 04:48:22;;;;;;;2.47;2.20;;;;;;;14.29;97.76;101373.00;5074448;28;20388;-94
2023/08/14 04:50:50;;;;;;;2.45;2.05;;;;;;;14.27;97.75;101360.84;5074554;28;20498;-95
2023/08/14 04:53:59;;;;;;;2.10;2.00;;;;;;;14.41;97.74;101374.47;5074677;28;20070;-95
2023/08/14 04:56:40;;;;;;;2.05;1.90;;;;;;;14.40;97.94;101375.34;5074517;28;20036;-94
2023/08/14 04:59:05;;;;;;;2.20;2.00;;;;;;;14.29;97.91;101348.63;5071815;28;20025;-94
2023/08/14 05:01:46;;;;;;;2.20;2.00;;;;;;;14.40;97.84;101358.84;5059772;28;20017;-93
2023/08/14 05:04:46;;;;;;;2.38;2.17;;;;;;;14.49;97.94;101356.84;5053799;28;20025;-94
2023/08/14 05:07:14;;;;;;;1.90;1.80;;;;;;;14.43;98.06;101337.84;5054845;28;20029;-94
2023/08/14 05:09:42;;;;;;;3.30;2.15;;;;;;;14.54;98.15;101364.56;5054780;28;20055;-92
2023/08/14 05:14:35;;;;;;;1.90;1.75;;;;;;;14.68;99.01;101356.47;5013291;28;20053;-92
2023/08/14 05:17:00;;;;;;;2.40;1.70;;;;;;;14.73;100.00;101353.72;5014598;28;20049;-93
2023/08/14 05:19:26;;;;;;;1.60;1.50;;;;;;;14.79;99.11;101346.59;5013992;28;20049;-93
2023/08/14 05:21:51;;;;;;;1.60;1.50;;;;;;;14.88;99.12;101349.88;5015349;28;20439;-96
2023/08/14 05:24:16;;;;;;;1.70;1.60;;;;;;;14.98;99.26;101349.59;5025677;28;20078;-94
2023/08/14 05:26:42;;;;;;;1.60;1.50;;;;;;;15.07;99.28;101358.97;5015143;28;20026;-96
2023/08/14 05:29:07;;;;;;;1.80;1.70;;;;;;;15.13;99.65;101352.72;5019098;28;20164;-96
2023/08/14 05:31:33;;;;;;;1.60;1.50;;;;;;;15.22;99.31;101356.84;5015306;28;20041;-91
2023/08/14 05:33:58;;;;;;;2.20;1.80;;;;;;;15.29;99.38;101356.66;5014120;28;20029;-85
2023/08/14 05:36:23;;;;;;;2.33;1.70;;;;;;;15.36;99.03;101352.13;5013015;28;20030;-82
2023/08/14 05:38:49;;;;;;;2.10;1.90;;;;;;;15.43;99.33;101356.25;5012253;28;20152;-82
2023/08/14 05:41:15;;;;;;;1.27;1.23;;;;;;;15.51;100.00;101365.66;5013014;28;20164;-83
2023/08/14 05:43:40;;;;;;;1.33;1.30;;;;;;;15.46;99.80;101347.47;5013033;28;20034;-83
2023/08/14 05:46:06;;;;;;;1.83;1.73;;;;;;;15.59;99.18;101372.41;5013988;28;20030;-88
2023/08/14 05:48:31;;;;;;;1.93;1.70;;;;;;;15.52;99.70;101360.41;5013448;28;20545;-89
2023/08/14 05:50:56;;;;;;;1.33;1.30;;;;;;;15.62;100.00;101366.22;5013298;28;20044;-92
2023/08/14 05:53:22;;;;;;;1.60;1.50;;;;;;;15.69;99.80;101379.97;5012969;28;20037;-89
2023/08/14 05:55:47;;;;;;;1.47;1.40;;;;;;;15.70;100.00;101372.09;5013493;28;20109;-86
2023/08/14 06:00:47;;;;;;;1.50;1.40;;;;;;;15.71;99.89;101386.03;5010545;28;20045;-86
2023/08/14 06:03:12;;;;;;;1.40;1.40;;;;;;;15.72;100.00;101392.97;5012276;28;20041;-86
2023/08/14 06:05:38;;;;;;;1.10;1.10;;;;;;;15.72;100.00;101398.22;5012744;28;20068;-85
2023/08/14 06:08:04;;;;;;;1.37;1.27;;;;;;;15.71;100.00;101391.25;5012086;28;20061;-86
2023/08/14 06:10:33;;;;;;;;;;;;;;;15.75;100.00;101398.13;5013480;28;20025;-86
2023/08/14 06:12:58;;;;;;;1.77;1.60;;;;;;;15.75;100.00;101401.59;5013187;28;19914;-86
2023/08/14 06:15:25;;;;;;;1.73;1.63;;;;;;;15.78;100.00;101405.03;5012387;28;20030;-86
2023/08/14 06:17:51;;;;;;;1.67;1.58;;;;;;;15.85;100.00;101409.22;5014337;28;20026;-86
2023/08/14 06:20:17;;;;;;;1.80;1.48;;;;;;;15.87;100.00;101396.94;5013138;28;20042;-86
2023/08/14 06:22:45;;;;;;;1.60;1.50;;;;;;;15.94;100.00;101395.03;5012398;28;20501;-86
2023/08/14 06:25:12;;;;;;;1.65;1.55;;;;;;;15.95;100.00;101394.97;5105162;22;20453;-89
2023/08/14 06:27:39;;;;;;;1.98;1.88;;;;;;;16.01;100.00;101391.31;5051839;28;20060;-89
2023/08/14 06:30:05;;;;;;;;;;;;;;;16.07;100.00;101393.75;5052759;28;20021;-88
2023/08/14 06:32:30;;;;;;;2.03;1.92;;;;;;;16.15;99.62;101383.91;5053000;28;19923;-86
2023/08/14 06:34:56;;;;;;;1.93;1.83;;;;;;;16.24;100.00;101379.28;5051925;28;20028;-89
2023/08/14 06:37:21;;;;;;;2.30;2.10;;;;;;;16.34;100.00;101383.34;5054145;28;20116;-92
2023/08/14 06:39:47;;;;;;;2.10;1.90;;;;;;;16.43;100.00;101380.47;5053496;28;20082;-89
2023/08/14 06:42:15;;;;;;;3.17;2.40;;;;;;;16.61;99.34;101381.63;5051708;28;20033;-93
2023/08/14 06:44:40;;;;;;;3.22;2.33;;;;;;;16.78;100.00;101381.06;5052876;28;20070;-91
2023/08/14 06:47:06;;;;;;;3.80;2.93;;;;;;;16.94;100.00;101376.19;5053461;28;20057;-91
2023/08/14 06:49:31;;;;;;;3.70;2.80;;;;;;;16.99;100.00;101362.97;5052407;28;20459;-79
2023/08/14 06:51:56;;;;;;;2.83;2.60;;;;;;;17.08;100.00;101364.41;5054883;28;20031;-96
2023/08/14 06:54:22;;;;;;;3.60;2.50;;;;;;;17.26;100.00;101374.28;5069396;22;20066;-95
2023/08/14 06:56:47;;;;;;;2.57;2.30;;;;;;;17.62;100.00;101373.00;5052668;28;20124;-96
2023/08/14 06:59:12;;;;;;;3.37;2.90;;;;;;;18.97;100.00;101376.56;5053790;28;20025;-95
2023/08/14 07:01:39;;;;;;;3.15;2.60;;;;;;;21.10;99.07;101367.63;5054983;28;20080;-96
2023/08/14 07:04:04;;;;;;;4.63;2.70;;;;;;;22.89;91.68;101364.06;5054323;28;20032;-95
2023/08/14 07:06:30;;;;;;;2.40;2.20;;;;;;;24.47;88.19;101378.19;5053935;28;20036;-96
2023/08/14 07:09:08;;;;;;;3.53;2.60;;;;;;;26.14;78.51;101363.25;5055706;28;20108;-95
2023/08/14 07:11:38;;;;;;;4.10;2.83;;;;;;;27.37;67.59;101364.69;5054248;28;20027;-96
2023/08/14 07:14:04;;;;;;;3.97;2.70;;;;;;;28.07;65.81;101375.22;5054218;28;20033;-96
2023/08/14 07:16:29;;;;;;;4.03;2.70;;;;;;;27.08;63.87;101367.81;5056217;28;20462;-95
2023/08/14 07:18:55;;;;;;;3.67;2.67;;;;;;;25.83;66.25;101380.53;5058113;28;20017;-96
2023/08/14 07:21:20;;;;;;;3.63;2.60;;;;;;;24.37;69.86;101371.78;5064436;28;20032;-95
2023/08/14 07:23:46;;;;;;;4.73;2.70;;;;;;;23.37;73.38;101370.97;5064046;28;20028;-96
2023/08/14 07:26:11;;;;;;;4.68;2.90;;;;;;;22.48;75.91;101359.41;5058576;28;20050;-96
2023/08/14 07:28:55;;;;;;;5.87;2.80;;;;;;;21.75;78.36;101364.25;5057290;28;20029;-96
2023/08/14 07:31:20;;;;;;;3.10;2.40;;;;;;;21.32;80.06;101377.06;5056113;28;20017;-96
2023/08/14 07:33:46;;;;;;;2.80;2.30;;;;;;;21.06;81.07;101378.41;5056996;28;20044;-96
2023/08/14 07:36:11;;;;;;;4.93;2.70;;;;;;;20.91;82.10;101391.44;5059049;28;20021;-96
2023/08/14 07:38:36;;;;;;;4.13;2.50;;;;;;;20.67;82.91;101393.50;5057144;28;20545;-96
2023/08/14 07:41:02;;;;;;;3.00;2.27;;;;;;;20.41;82.73;101398.25;5068179;28;20017;-96
2023/08/14 07:43:27;;;;;;;3.10;2.43;;;;;;;20.16;83.40;101390.66;5068885;28;20029;-96
2023/08/14 07:45:54;;;;;;;1.97;1.87;;;;;;;20.23;85.27;101404.41;5062963;28;20056;-96
2023/08/14 07:48:19;;;;;;;2.35;2.05;;;;;;;20.14;84.34;101395.16;5065496;28;20017;-96
2023/08/14 07:50:51;;;;;;;3.63;2.70;;;;;;;20.13;85.11;101383.78;5062990;28;20036;-96
2023/08/14 07:53:16;;;;;;;3.15;2.13;;;;;;;20.34;86.06;101394.22;5045494;28;20031;-96
2023/08/14 07:55:42;;;;;;;2.30;2.00;;;;;;;20.36;86.08;101374.75;5071208;28;20092;-96
2023/08/14 07:58:34;;;;;;;2.80;2.23;;;;;;;20.58;86.68;101392.16;5068010;28;20053;-96
2023/08/14 08:01:02;;;;;;;3.03;2.30;;;;;;;20.56;85.81;101372.09;5071579;28;20025;-96
2023/08/14 08:03:28;;;;;;;3.85;2.30;;;;;;;20.72;85.16;101391.47;5071035;28;20025;-96
2023/08/14 08:06:05;;;;;;;4.10;2.57;;;;;;;20.70;83.11;101379.31;5069400;28;20084;-96
2023/08/14 08:08:34;;;;;;;3.65;2.40;;;;;;;20.85;84.46;101386.50;5070249;28;20029;-96
2023/08/14 08:11:06;;;;;;;2.90;2.40;;;;;;;20.93;83.29;101380.84;5077341;28;20029;-96
2023/08/14 08:13:31;;;;;;;4.70;2.50;;;;;;;21.02;82.80;101380.38;5076547;28;20033;-96
2023/08/14 08:16:12;;;;;;;2.63;2.20;;;;;;;21.24;85.26;101376.63;5078411;28;20453;-96
2023/08/14 08:18:48;;;;;;;4.93;2.70;;;;;;;21.18;80.73;101363.72;5066908;28;20120;-96
2023/08/14 08:21:14;;;;;;;4.15;2.60;;;;;;;21.22;79.33;101360.84;5256276;22;20052;-96
2023/08/14 08:23:40;;;;;;;3.30;2.10;;;;;;;21.43;79.91;101387.91;5069362;28;20041;-96
2023/08/14 08:26:05;;;;;;;3.25;2.30;;;;;;;21.48;77.62;101365.72;5065568;28;20518;-96
2023/08/14 08:28:30;;;;;;;2.37;1.70;;;;;;;21.61;81.40;101361.53;5072899;28;20009;-96
2023/08/14 08:31:11;;;;;;;3.70;2.10;;;;;;;21.77;77.55;101363.31;5068598;28;20008;-96
2023/08/14 08:33:36;;;;;;;2.85;1.77;;;;;;;21.86;76.43;101368.97;5207939;22;20049;-96
2023/08/14 08:36:02;;;;;;;2.87;1.90;;;;;;;21.99;79.73;101363.00;5067840;28;20124;-96
2023/08/14 08:38:27;;;;;;;4.10;2.00;;;;;;;22.09;79.05;101369.47;5062269;28;20029;-96
2023/08/14 08:40:52;;;;;;;4.30;2.00;;;;;;;22.14;76.57;101361.28;5063421;28;20021;-96
2023/08/14 08:43:19;;;;;;;1.73;1.63;;;;;;;22.26;77.09;101357.97;5064877;28;20032;-96
2023/08/14 08:45:48;;;;;;;;;;;;;;;22.39;77.45;101360.75;5065878;28;20326;-96
2023/08/14 08:48:16;;;;;;;2.00;1.80;;;;;;;22.45;74.56;101354.28;5073683;28;19917;-96
2023/08/14 08:50:42;;;;;;;1.90;1.60;;;;;;;22.58;70.24;101365.00;5072935;28;20021;-96
2023/08/14 08:53:11;;;;;;;;;;;;;;;22.66;75.04;101363.63;5073635;28;20025;-96
2023/08/14 08:55:36;;;;;;;2.03;1.60;;;;;;;22.79;76.17;101361.13;5069309;28;19917;-96
2023/08/14 08:58:03;;;;;;;1.87;1.60;;;;;;;22.88;74.35;101348.28;5070822;28;20024;-96
2023/08/14 09:00:29;;;;;;;1.55;1.40;;;;;;;23.04;75.16;101350.88;5068608;28;20089;-95
2023/08/14 09:02:54;;;;;;;2.87;2.00;;;;;;;23.06;65.67;101351.63;5058161;28;20067;-96
2023/08/14 09:05:20;;;;;;;4.80;2.00;;;;;;;23.07;68.43;101348.03;5061793;28;20061;-96
2023/08/14 09:07:45;;;;;;;2.22;1.70;;;;;;;23.12;71.49;101345.94;5063301;28;20427;-96
2023/08/14 09:10:11;;;;;;;2.03;1.60;;;;;;;23.26;68.00;101351.31;5066107;28;20127;-96
2023/08/14 09:12:36;;;;;;;1.70;1.60;;;;;;;23.38;70.69;101354.97;5066370;28;20029;-96
2023/08/14 09:15:07;;;;;;;2.33;1.57;;;;;;;23.48;68.28;101339.38;5064855;28;20037;-96
2023/08/14 09:17:33;;;;;;;3.97;1.98;;;;;;;23.58;64.87;101343.16;5062436;28;20033;-96
2023/08/14 09:19:59;;;;;;;1.90;1.60;;;;;;;23.64;67.71;101341.91;5068586;28;20036;-96
2023/08/14 09:22:27;;;;;;;1.50;1.40;;;;;;;23.80;70.32;101341.78;5064074;28;20031;-96
2023/08/14 09:24:54;;;;;;;1.40;1.30;;;;;;;23.96;65.77;101346.16;5069336;28;20082;-96
2023/08/14 09:27:21;;;;;;;1.85;1.40;;;;;;;24.08;67.43;101355.97;5066199;28;20032;-96
2023/08/14 09:29:46;;;;;;;3.00;1.55;;;;;;;24.15;62.12;101362.59;5065507;28;20025;-96
2023/08/14 09:32:11;;;;;;;2.00;1.50;;;;;;;24.16;63.36;101353.69;5063648;28;20035;-96
2023/08/14 09:34:37;;;;;;;1.87;1.20;;;;;;;24.23;67.12;101361.22;5059697;28;20075;-94
2023/08/14 09:37:04;;;;;;;2.85;1.48;;;;;;;24.24;63.08;101366.44;5058844;28;20047;-93
2023/08/14 09:39:29;;;;;;;2.05;1.50;;;;;;;24.26;62.12;101371.63;5058765;28;20071;-96
2023/08/14 09:41:55;;;;;;;1.90;1.60;;;;;;;24.35;58.64;101379.00;5063668;28;20032;-96
2023/08/14 09:44:24;;;;;;;1.20;1.10;;;;;;;24.47;62.47;101372.03;5064400;28;20036;-96
2023/08/14 09:46:54;;;;;;;1.50;1.10;;;;;;;24.63;61.05;101371.88;5059959;28;20040;-96
2023/08/14 09:49:19;;;;;;;1.45;1.35;;;;;;;24.78;63.68;101377.97;5063112;28;20052;-96
2023/08/14 09:51:56;;;;;;;1.80;1.35;;;;;;;24.90;60.08;101370.97;5062037;28;20029;-90
2023/08/14 09:54:33;;;;;;;1.60;1.30;;;;;;;24.95;55.98;101372.38;5057454;28;20020;-96
2023/08/14 09:56:59;;;;;;;2.53;1.70;;;;;;;25.03;60.45;101363.88;5054890;28;20025;-90
2023/08/14 09:59:26;;;;;;;2.28;1.50;;;;;;;25.05;60.75;101350.53;5054059;28;20032;-95
2023/08/14 10:01:56;;;;;;;1.27;1.15;;;;;;;25.14;61.19;101353.38;5053930;28;20021;-91
2023/08/14 10:04:23;;;;;;;3.85;1.60;;;;;;;25.21;55.93;101347.66;5056966;28;20308;-90
2023/08/14 10:06:50;;;;;;;;;;;;;;;25.30;60.11;101354.97;5053284;28;20538;-85
2023/08/14 10:09:17;;;;;;;2.15;1.50;;;;;;;25.37;51.65;101339.47;5053925;28;19931;-93
2023/08/14 10:11:44;;;;;;;3.25;1.67;;;;;;;25.35;57.44;101339.53;5054207;28;20052;-94
2023/08/14 10:14:12;;;;;;;1.35;1.20;;;;;;;25.39;57.76;101326.94;5053717;28;20052;-95
2023/08/14 10:16:39;;;;;;;3.97;1.70;;;;;;;25.51;55.38;101327.88;5054246;28;20017;-94
2023/08/14 10:19:26;;;;;;;2.33;1.42;;;;;;;25.58;53.13;101318.50;5053938;28;20017;-95
2023/08/14 10:22:12;;;;;;;1.63;1.30;;;;;;;25.62;54.45;101314.69;5053884;28;20092;-94
2023/08/14 10:24:41;;;;;;;2.42;1.40;;;;;;;25.73;56.34;101306.78;5052757;28;20037;-95
2023/08/14 10:27:21;;;;;;;2.97;1.13;;;;;;;25.77;55.94;101288.78;5053774;28;20376;-94
2023/08/14 10:29:48;;;;;;;1.17;0.93;;;;;;;25.94;51.73;101298.19;5053884;28;20029;-96
2023/08/14 10:32:14;;;;;;;1.48;1.10;;;;;;;26.03;56.50;101304.66;5053755;28;20056;-96
2023/08/14 10:34:52;;;;;;;1.80;1.23;;;;;;;26.04;51.72;101277.09;5053391;28;20064;-95
2023/08/14 10:37:28;;;;;;;2.60;1.33;;;;;;;26.18;55.75;101282.25;5053332;28;20108;-95
2023/08/14 10:40:13;;;;;;;1.40;1.05;;;;;;;26.25;56.90;101285.28;5053900;28;20100;-94
2023/08/14 10:42:44;;;;;;;1.10;1.00;;;;;;;26.42;51.23;101278.69;5053533;28;20025;-95
2023/08/14 10:45:10;;;;;;;2.47;1.50;;;;;;;26.47;54.00;101279.22;5048803;28;20486;-94
2023/08/14 10:47:38;;;;;;;3.85;1.55;;;;;;;26.42;48.44;101277.88;5053180;28;20040;-93
2023/08/14 10:50:14;;;;;;;1.65;1.30;;;;;;;26.46;54.13;101287.31;5053572;28;20474;-94
2023/08/14 10:52:44;;;;;;;1.88;1.50;;;;;;;26.57;50.03;101286.47;5057768;28;20029;-92
2023/08/14 10:55:17;;;;;;;1.98;1.52;;;;;;;26.63;52.55;101288.66;5056997;28;20033;-95
2023/08/14 10:57:42;;;;;;;3.25;1.52;;;;;;;26.72;51.84;101281.78;5058070;28;20025;-94
2023/08/14 11:00:28;;;;;;;3.10;1.60;;;;;;;26.81;52.16;101286.44;5068887;28;20108;-95
2023/08/14 11:03:07;;;;;;;2.00;1.30;;;;;;;26.93;51.77;101288.16;5057023;28;20037;-95
2023/08/14 11:05:39;;;;;;;1.38;1.17;;;;;;;26.96;53.18;101282.59;5057363;28;20021;-95
2023/08/14 11:08:06;;;;;;;1.83;1.38;;;;;;;27.02;49.63;101286.59;5057366;28;20056;-94
2023/08/14 11:10:34;;;;;;;1.60;1.10;;;;;;;27.07;52.83;101294.22;5058721;28;20125;-96
2023/08/14 11:13:01;;;;;;;1.73;1.23;;;;;;;27.10;51.44;101288.66;5058458;28;20029;-95
2023/08/14 11:15:30;;;;;;;2.00;1.02;;;;;;;27.15;53.13;101285.63;5058507;28;20024;-95
2023/08/14 11:17:56;;;;;;;2.53;1.30;;;;;;;27.22;50.66;101301.00;5058738;28;20021;-96
2023/08/14 11:20:22;;;;;;;;;;;;;;;27.27;51.40;101295.31;5058606;28;20060;-94
2023/08/14 11:22:47;;;;;;;1.63;1.15;;;;;;;27.28;52.21;101287.19;5059601;28;19912;-95
2023/08/14 11:25:25;;;;;;;2.65;1.60;;;;;;;27.16;49.91;101282.00;5061260;28;20025;-93
2023/08/14 11:28:00;;;;;;;2.08;1.52;;;;;;;27.10;50.17;101265.50;5068577;28;20017;-94
2023/08/14 11:30:36;;;;;;;4.10;1.48;;;;;;;27.18;50.14;101266.75;5059142;28;20032;-93
2023/08/14 11:36:05;;;;;;;2.42;1.90;;;;;;;27.36;51.30;101275.91;5619062;22;20020;-96
2023/08/14 11:38:30;;;;;;;2.15;1.10;;;;;;;27.46;51.82;101272.53;5060547;28;20037;-94
2023/08/14 11:41:08;;;;;;;;;;;;;;;27.60;50.02;101274.94;5058862;28;20033;-93
2023/08/14 11:43:35;;;;;;;3.72;1.60;;;;;;;27.67;49.75;101264.63;5057679;28;19913;-96
2023/08/14 11:46:05;;;;;;;1.60;1.27;;;;;;;27.69;49.56;101263.53;5069083;28;20083;-96
2023/08/14 11:48:43;;;;;;;2.42;1.50;;;;;;;27.78;50.55;101269.94;5070316;28;20159;-96
2023/08/14 11:51:14;;;;;;;2.08;1.30;;;;;;;27.82;49.26;101273.19;5066988;28;20465;-96